Airfield :
LOGIN :

Register | Disclaimer

   EN    FR    IT 

 










Legend :    VFR   Marginal VFR   IFR   Intensive IFR   Very Intensive IFR
Visi :
Ceiling :
>= 8 km
>= 3000ft
5 to 8 km
1000 to 3000 ft
1500m to 5 km
500 to 1000 ft
800 to 1500m
200 to 500 ft
< 800m
< 200 ft
Symbols :   Thunderstorms  Fog  Heavy snow  Heavy precipitations  Wind > 20 kt
SIGMETs :     Misc.  Thunderstorms  Icing  Turbulence  Mountain Waves  Volcanic Ashes






- Airport Elevation : 72 ft
- IATA code : UDE


EHVK - Volkel Airbase

CURRENT METAR :
  • 261555Z AUTO 18008KT 140V230 9999 SCT035 BKN040 BKN045 11/07 Q1001 BLU

EXPIRED METARs :
  • 261525Z AUTO 19011KT 150V230 9999 SCT030 OVC050 11/07 Q1000 BLU
  • 261455Z AUTO 18008KT 150V230 9999 FEW034 OVC053 12/07 Q1000 BLU
  • 261431Z AUTO 19010KT 150V230 9999 FEW034 SCT039 BKN046 12/07 Q1000 BLU
  • 261355Z AUTO 20009KT 150V230 9999 FEW031 BKN049 OVC054 12/07 Q1000 BLU NOSIG
  • 261325Z AUTO 21010KT 190V250 9999 SCT029 BKN033 BKN041 12/07 Q1000 BLU NOSIG

TAF TAF EHVK
Valid from the 26 at 14:00 until the 27 at 02:00 UTC


261336Z 2614/2702 20012KT 9999 BKN030
PROB30
TEMPO 2617/2701 FEW015 SCT018CB BKN022



MET'MAP, your aeronautical weather chart ! - Copyright ORBIFLY December 2007 - Disclaimer

ORBIFLY MET'MAP TEAM :

Programming & Development : Alexandra Zaïnal
Concept & original design : Baudouin d'Aumeries
Assistance for programming : Marc-Olivier Méhu
Technical & hardware support : Manuel Goepfert

Contact : metmap@orbifly.com




SOURCES & CREDITS :

   NOAA